sensor_id;sensor_type;location;lat;lon;timestamp;pressure;altitude;pressure_sealevel;temperature;humidity
14204;BME280;7185;51.854;6.622;2022-09-28T00:02:50;99298.56;;;9.02;100.00
14204;BME280;7185;51.854;6.622;2022-09-28T00:05:59;99292.97;;;9.13;100.00
14204;BME280;7185;51.854;6.622;2022-09-28T00:08:43;99290.28;;;9.14;100.00
14204;BME280;7185;51.854;6.622;2022-09-28T00:17:54;99291.28;;;9.37;100.00
14204;BME280;7185;51.854;6.622;2022-09-28T00:20:59;99295.53;;;9.39;100.00
14204;BME280;7185;51.854;6.622;2022-09-28T00:23:59;99293.47;;;9.49;100.00
14204;BME280;7185;51.854;6.622;2022-09-28T00:27:05;99299.13;;;9.37;100.00
14204;BME280;7185;51.854;6.622;2022-09-28T00:30:27;99291.50;;;9.31;100.00
14204;BME280;7185;51.854;6.622;2022-09-28T00:33:40;99290.47;;;9.35;100.00
14204;BME280;7185;51.854;6.622;2022-09-28T00:36:47;99283.66;;;9.31;100.00
14204;BME280;7185;51.854;6.622;2022-09-28T00:40:02;99290.59;;;9.32;100.00
14204;BME280;7185;51.854;6.622;2022-09-28T00:46:22;99289.41;;;9.40;100.00
14204;BME280;7185;51.854;6.622;2022-09-28T00:49:47;99278.19;;;9.37;100.00
14204;BME280;7185;51.854;6.622;2022-09-28T00:52:41;99285.41;;;9.30;100.00
14204;BME280;7185;51.854;6.622;2022-09-28T00:55:57;99272.06;;;9.38;100.00
14204;BME280;7185;51.854;6.622;2022-09-28T00:59:06;99275.59;;;9.37;100.00
14204;BME280;7185;51.854;6.622;2022-09-28T01:04:49;99267.88;;;9.34;100.00
14204;BME280;7185;51.854;6.622;2022-09-28T01:07:28;99260.56;;;9.42;100.00
14204;BME280;7185;51.854;6.622;2022-09-28T01:13:19;99270.28;;;9.38;100.00
14204;BME280;7185;51.854;6.622;2022-09-28T01:16:12;99263.31;;;9.39;100.00
14204;BME280;7185;51.854;6.622;2022-09-28T01:19:12;99270.28;;;9.38;100.00
14204;BME280;7185;51.854;6.622;2022-09-28T01:22:16;99268.53;;;9.39;100.00
14204;BME280;7185;51.854;6.622;2022-09-28T01:25:21;99271.16;;;9.39;100.00
14204;BME280;7185;51.854;6.622;2022-09-28T01:28:36;99270.81;;;9.48;100.00
14204;BME280;7185;51.854;6.622;2022-09-28T01:31:33;99272.44;;;9.52;100.00
14204;BME280;7185;51.854;6.622;2022-09-28T01:34:33;99281.09;;;9.54;100.00
14204;BME280;7185;51.854;6.622;2022-09-28T01:37:46;99278.41;;;9.56;100.00
14204;BME280;7185;51.854;6.622;2022-09-28T01:40:37;99277.91;;;9.46;100.00
14204;BME280;7185;51.854;6.622;2022-09-28T01:43:41;99265.59;;;9.48;100.00
14204;BME280;7185;51.854;6.622;2022-09-28T01:46:49;99277.19;;;9.41;100.00
14204;BME280;7185;51.854;6.622;2022-09-28T01:49:49;99274.38;;;9.47;100.00
14204;BME280;7185;51.854;6.622;2022-09-28T01:52:33;99270.78;;;9.50;100.00
14204;BME280;7185;51.854;6.622;2022-09-28T01:55:27;99270.94;;;9.45;100.00
14204;BME280;7185;51.854;6.622;2022-09-28T01:58:41;99271.00;;;9.44;100.00
14204;BME280;7185;51.854;6.622;2022-09-28T02:02:00;99266.94;;;9.35;100.00
14204;BME280;7185;51.854;6.622;2022-09-28T02:04:43;99268.41;;;9.42;100.00
14204;BME280;7185;51.854;6.622;2022-09-28T02:07:25;99270.28;;;9.38;100.00
14204;BME280;7185;51.854;6.622;2022-09-28T02:10:02;99259.06;;;9.36;100.00
14204;BME280;7185;51.854;6.622;2022-09-28T02:12:40;99257.28;;;9.37;100.00
14204;BME280;7185;51.854;6.622;2022-09-28T02:15:18;99254.72;;;9.35;100.00
14204;BME280;7185;51.854;6.622;2022-09-28T02:17:51;99252.03;;;9.37;100.00
14204;BME280;7185;51.854;6.622;2022-09-28T02:20:22;99245.22;;;9.33;100.00
14204;BME280;7185;51.854;6.622;2022-09-28T02:22:55;99252.25;;;9.31;100.00
14204;BME280;7185;51.854;6.622;2022-09-28T02:25:30;99251.50;;;9.27;100.00
14204;BME280;7185;51.854;6.622;2022-09-28T02:28:05;99252.03;;;9.37;100.00
14204;BME280;7185;51.854;6.622;2022-09-28T02:30:41;99252.25;;;9.31;100.00
14204;BME280;7185;51.854;6.622;2022-09-28T02:33:17;99245.22;;;9.33;100.00
14204;BME280;7185;51.854;6.622;2022-09-28T02:35:50;99243.50;;;9.32;100.00
14204;BME280;7185;51.854;6.622;2022-09-28T02:38:22;99246.81;;;9.37;100.00
14204;BME280;7185;51.854;6.622;2022-09-28T02:41:00;99257.41;;;9.34;100.00
14204;BME280;7185;51.854;6.622;2022-09-28T02:43:39;99246.94;;;9.34;100.00
14204;BME280;7185;51.854;6.622;2022-09-28T02:46:27;99250.25;;;9.39;100.00
14204;BME280;7185;51.854;6.622;2022-09-28T02:49:09;99242.03;;;9.48;100.00
14204;BME280;7185;51.854;6.622;2022-09-28T02:51:59;99240.53;;;9.43;100.00
14204;BME280;7185;51.854;6.622;2022-09-28T02:54:55;99243.88;;;9.46;100.00
14204;BME280;7185;51.854;6.622;2022-09-28T02:57:38;99238.06;;;9.38;100.00
14204;BME280;7185;51.854;6.622;2022-09-28T03:00:19;99254.44;;;9.43;100.00
14204;BME280;7185;51.854;6.622;2022-09-28T03:02:59;99255.56;;;9.36;100.00
14204;BME280;7185;51.854;6.622;2022-09-28T03:05:37;99246.28;;;9.52;100.00
14204;BME280;7185;51.854;6.622;2022-09-28T03:08:19;99241.13;;;9.49;100.00
14204;BME280;7185;51.854;6.622;2022-09-28T03:10:55;99248.53;;;9.38;100.00
14204;BME280;7185;51.854;6.622;2022-09-28T03:13:29;99248.38;;;9.43;100.00
14204;BME280;7185;51.854;6.622;2022-09-28T03:16:08;99245.75;;;9.43;100.00
14204;BME280;7185;51.854;6.622;2022-09-28T03:18:42;99250.91;;;9.44;100.00
14204;BME280;7185;51.854;6.622;2022-09-28T03:21:14;99248.25;;;9.46;100.00
14204;BME280;7185;51.854;6.622;2022-09-28T03:23:46;99262.19;;;9.46;100.00
14204;BME280;7185;51.854;6.622;2022-09-28T03:26:17;99257.06;;;9.43;100.00
14204;BME280;7185;51.854;6.622;2022-09-28T03:28:49;99264.84;;;9.45;100.00
14204;BME280;7185;51.854;6.622;2022-09-28T03:31:22;99262.41;;;9.40;100.00
14204;BME280;7185;51.854;6.622;2022-09-28T03:33:55;99261.59;;;9.38;100.00
14204;BME280;7185;51.854;6.622;2022-09-28T03:36:28;99263.91;;;9.47;100.00
14204;BME280;7185;51.854;6.622;2022-09-28T03:39:00;99267.16;;;9.54;100.00
14204;BME280;7185;51.854;6.622;2022-09-28T03:41:31;99261.66;;;9.62;100.00
14204;BME280;7185;51.854;6.622;2022-09-28T03:44:03;99267.22;;;9.52;100.00
14204;BME280;7185;51.854;6.622;2022-09-28T03:46:35;99265.34;;;9.56;100.00
14204;BME280;7185;51.854;6.622;2022-09-28T03:49:09;99266.34;;;9.52;100.00
14204;BME280;7185;51.854;6.622;2022-09-28T03:51:40;99271.19;;;9.63;100.00
14204;BME280;7185;51.854;6.622;2022-09-28T03:54:12;99272.28;;;9.57;100.00
14204;BME280;7185;51.854;6.622;2022-09-28T03:56:44;99273.13;;;9.57;100.00
14204;BME280;7185;51.854;6.622;2022-09-28T03:59:15;99271.47;;;9.55;100.00
14204;BME280;7185;51.854;6.622;2022-09-28T04:01:47;99270.72;;;9.51;100.00
14204;BME280;7185;51.854;6.622;2022-09-28T04:04:20;99274.84;;;9.59;100.00
14204;BME280;7185;51.854;6.622;2022-09-28T04:06:52;99264.94;;;9.67;100.00
14204;BME280;7185;51.854;6.622;2022-09-28T04:09:24;99271.19;;;9.63;100.00
14204;BME280;7185;51.854;6.622;2022-09-28T04:11:55;99270.50;;;9.57;100.00
14204;BME280;7185;51.854;6.622;2022-09-28T04:14:27;99268.69;;;9.60;100.00
14204;BME280;7185;51.854;6.622;2022-09-28T04:16:58;99271.16;;;9.64;100.00
14204;BME280;7185;51.854;6.622;2022-09-28T04:19:32;99269.53;;;9.60;100.00
14204;BME280;7185;51.854;6.622;2022-09-28T04:22:03;99269.81;;;9.52;100.00
14204;BME280;7185;51.854;6.622;2022-09-28T04:24:35;99264.28;;;9.62;100.00
14204;BME280;7185;51.854;6.622;2022-09-28T04:27:07;99268.84;;;9.55;100.00
14204;BME280;7185;51.854;6.622;2022-09-28T04:29:56;99269.00;;;9.50;100.00
14204;BME280;7185;51.854;6.622;2022-09-28T04:32:28;99277.50;;;9.57;100.00
14204;BME280;7185;51.854;6.622;2022-09-28T04:35:01;99274.75;;;9.62;100.00
14204;BME280;7185;51.854;6.622;2022-09-28T04:37:33;99268.38;;;9.44;100.00
14204;BME280;7185;51.854;6.622;2022-09-28T04:40:05;99277.03;;;9.46;100.00
14204;BME280;7185;51.854;6.622;2022-09-28T04:42:37;99271.03;;;9.42;100.00
14204;BME280;7185;51.854;6.622;2022-09-28T04:45:09;99268.56;;;9.37;100.00
14204;BME280;7185;51.854;6.622;2022-09-28T04:47:46;99265.81;;;9.42;100.00
14204;BME280;7185;51.854;6.622;2022-09-28T05:00:15;99269.97;;;9.48;100.00
14204;BME280;7185;51.854;6.622;2022-09-28T05:10:44;99269.31;;;9.41;100.00
14204;BME280;7185;51.854;6.622;2022-09-28T05:13:15;99268.03;;;9.28;100.00
14204;BME280;7185;51.854;6.622;2022-09-28T05:28:49;99269.16;;;9.20;100.00
14204;BME280;7185;51.854;6.622;2022-09-28T05:31:26;99267.66;;;9.40;100.00
14204;BME280;7185;51.854;6.622;2022-09-28T05:33:58;99275.66;;;9.35;100.00
14204;BME280;7185;51.854;6.622;2022-09-28T05:36:33;99273.09;;;9.34;100.00
14204;BME280;7185;51.854;6.622;2022-09-28T05:39:05;99272.50;;;9.25;100.00
14204;BME280;7185;51.854;6.622;2022-09-28T05:41:40;99273.19;;;9.31;100.00
14204;BME280;7185;51.854;6.622;2022-09-28T05:44:15;99278.19;;;9.37;100.00
14204;BME280;7185;51.854;6.622;2022-09-28T05:46:51;99272.22;;;9.33;100.00
14204;BME280;7185;51.854;6.622;2022-09-28T05:49:26;99273.72;;;9.40;100.00
14204;BME280;7185;51.854;6.622;2022-09-28T05:54:41;99282.97;;;9.51;100.00
14204;BME280;7185;51.854;6.622;2022-09-28T05:57:13;99284.50;;;9.56;100.00
14204;BME280;7185;51.854;6.622;2022-09-28T05:59:54;99282.03;;;9.52;100.00
14204;BME280;7185;51.854;6.622;2022-09-28T06:02:41;99289.84;;;9.53;100.00
14204;BME280;7185;51.854;6.622;2022-09-28T06:05:24;99280.97;;;9.57;100.00
14204;BME280;7185;51.854;6.622;2022-09-28T06:08:09;99286.88;;;9.63;100.00
14204;BME280;7185;51.854;6.622;2022-09-28T06:17:40;99289.41;;;9.66;100.00
14204;BME280;7185;51.854;6.622;2022-09-28T06:24:41;99303.53;;;9.62;100.00
14204;BME280;7185;51.854;6.622;2022-09-28T06:31:12;99319.75;;;9.71;100.00
14204;BME280;7185;51.854;6.622;2022-09-28T06:38:54;99328.16;;;9.80;100.00
14204;BME280;7185;51.854;6.622;2022-09-28T06:50:39;99331.72;;;9.79;100.00
14204;BME280;7185;51.854;6.622;2022-09-28T06:58:29;99320.06;;;9.87;100.00
14204;BME280;7185;51.854;6.622;2022-09-28T07:01:11;99332.13;;;9.92;100.00
14204;BME280;7185;51.854;6.622;2022-09-28T07:06:14;99327.59;;;9.97;100.00
14204;BME280;7185;51.854;6.622;2022-09-28T07:16:45;99341.13;;;10.08;100.00
14204;BME280;7185;51.854;6.622;2022-09-28T07:32:18;99358.16;;;10.20;100.00
14204;BME280;7185;51.854;6.622;2022-09-28T07:42:35;99359.88;;;10.46;100.00
14204;BME280;7185;51.854;6.622;2022-09-28T07:45:08;99362.41;;;10.48;100.00
14204;BME280;7185;51.854;6.622;2022-09-28T07:50:20;99370.88;;;10.78;100.00
14204;BME280;7185;51.854;6.622;2022-09-28T07:57:58;99377.75;;;10.81;100.00
14204;BME280;7185;51.854;6.622;2022-09-28T08:03:19;99381.75;;;10.91;100.00
14204;BME280;7185;51.854;6.622;2022-09-28T08:11:08;99392.22;;;10.91;100.00
14204;BME280;7185;51.854;6.622;2022-09-28T08:13:40;99395.94;;;10.86;100.00
14204;BME280;7185;51.854;6.622;2022-09-28T08:16:12;99403.56;;;10.92;100.00
14204;BME280;7185;51.854;6.622;2022-09-28T08:18:43;99400.63;;;10.99;100.00
14204;BME280;7185;51.854;6.622;2022-09-28T08:21:15;99405.59;;;10.85;100.00
14204;BME280;7185;51.854;6.622;2022-09-28T08:24:04;99402.66;;;10.93;100.00
14204;BME280;7185;51.854;6.622;2022-09-28T08:26:37;99410.09;;;10.81;100.00
14204;BME280;7185;51.854;6.622;2022-09-28T08:29:09;99413.63;;;10.80;100.00
14204;BME280;7185;51.854;6.622;2022-09-28T08:31:40;99414.63;;;10.76;100.00
14204;BME280;7185;51.854;6.622;2022-09-28T08:34:12;99424.78;;;10.86;100.00
14204;BME280;7185;51.854;6.622;2022-09-28T08:36:44;99420.09;;;10.94;100.00
14204;BME280;7185;51.854;6.622;2022-09-28T08:39:16;99423.63;;;10.93;100.00
14204;BME280;7185;51.854;6.622;2022-09-28T08:41:54;99431.38;;;10.96;100.00
14204;BME280;7185;51.854;6.622;2022-09-28T08:44:41;99437.97;;;11.06;100.00
14204;BME280;7185;51.854;6.622;2022-09-28T08:47:17;99443.94;;;11.10;100.00
14204;BME280;7185;51.854;6.622;2022-09-28T08:50:21;99439.94;;;11.23;100.00
14204;BME280;7185;51.854;6.622;2022-09-28T08:52:58;99446.06;;;11.24;100.00
14204;BME280;7185;51.854;6.622;2022-09-28T08:55:35;99441.03;;;11.40;100.00
14204;BME280;7185;51.854;6.622;2022-09-28T08:58:11;99446.75;;;11.50;100.00
14204;BME280;7185;51.854;6.622;2022-09-28T09:00:46;99449.75;;;11.40;100.00
14204;BME280;7185;51.854;6.622;2022-09-28T09:03:20;99450.91;;;11.55;100.00
14204;BME280;7185;51.854;6.622;2022-09-28T09:06:02;99449.69;;;11.64;100.00
14204;BME280;7185;51.854;6.622;2022-09-28T09:08:43;99465.38;;;11.43;100.00
14204;BME280;7185;51.854;6.622;2022-09-28T09:11:29;99452.56;;;11.58;100.00
14204;BME280;7185;51.854;6.622;2022-09-28T09:14:31;99454.88;;;11.86;100.00
14204;BME280;7185;51.854;6.622;2022-09-28T09:17:15;99455.50;;;11.93;100.00
14204;BME280;7185;51.854;6.622;2022-09-28T09:19:52;99456.78;;;12.05;100.00
14204;BME280;7185;51.854;6.622;2022-09-28T09:22:32;99458.53;;;12.04;100.00
14204;BME280;7185;51.854;6.622;2022-09-28T09:25:17;99459.44;;;12.24;100.00
14204;BME280;7185;51.854;6.622;2022-09-28T09:28:00;99456.00;;;12.82;100.00
14204;BME280;7185;51.854;6.622;2022-09-28T09:30:45;99450.38;;;13.65;100.00
14204;BME280;7185;51.854;6.622;2022-09-28T09:33:43;99447.66;;;14.01;100.00
14204;BME280;7185;51.854;6.622;2022-09-28T09:36:33;99450.78;;;14.10;100.00
14204;BME280;7185;51.854;6.622;2022-09-28T09:39:19;99447.75;;;14.85;100.00
14204;BME280;7185;51.854;6.622;2022-09-28T09:42:04;99452.16;;;15.48;100.00
14204;BME280;7185;51.854;6.622;2022-09-28T09:45:06;99450.50;;;15.61;100.00
14204;BME280;7185;51.854;6.622;2022-09-28T09:47:47;99449.41;;;15.66;100.00
14204;BME280;7185;51.854;6.622;2022-09-28T09:50:23;99443.59;;;15.75;100.00
14204;BME280;7185;51.854;6.622;2022-09-28T09:53:02;99448.34;;;16.29;100.00
14204;BME280;7185;51.854;6.622;2022-09-28T09:55:37;99450.06;;;16.45;73.29
14204;BME280;7185;51.854;6.622;2022-09-28T09:58:13;99444.50;;;17.07;72.19
14204;BME280;7185;51.854;6.622;2022-09-28T10:00:50;99451.16;;;17.55;69.27
14204;BME280;7185;51.854;6.622;2022-09-28T10:03:27;99448.47;;;18.35;66.31
14204;BME280;7185;51.854;6.622;2022-09-28T10:06:02;99446.94;;;18.05;61.97
14204;BME280;7185;51.854;6.622;2022-09-28T10:08:39;99448.97;;;18.14;63.40
14204;BME280;7185;51.854;6.622;2022-09-28T10:11:14;99449.53;;;17.52;64.56
14204;BME280;7185;51.854;6.622;2022-09-28T10:13:47;99446.94;;;16.96;67.49
14204;BME280;7185;51.854;6.622;2022-09-28T10:16:19;99446.38;;;16.47;68.77
14204;BME280;7185;51.854;6.622;2022-09-28T10:18:52;99443.34;;;16.97;77.34
14204;BME280;7185;51.854;6.622;2022-09-28T10:21:24;99446.06;;;18.05;72.83
14204;BME280;7185;51.854;6.622;2022-09-28T10:23:59;99438.50;;;19.02;65.15
14204;BME280;7185;51.854;6.622;2022-09-28T10:26:34;99437.94;;;20.29;59.89
14204;BME280;7185;51.854;6.622;2022-09-28T10:29:12;99426.84;;;20.81;55.56
14204;BME280;7185;51.854;6.622;2022-09-28T10:31:48;99435.19;;;20.99;53.86
14204;BME280;7185;51.854;6.622;2022-09-28T10:34:26;99438.06;;;20.39;53.46
14204;BME280;7185;51.854;6.622;2022-09-28T10:37:01;99446.88;;;19.57;54.99
14204;BME280;7185;51.854;6.622;2022-09-28T10:39:36;99448.75;;;19.43;56.90
14204;BME280;7185;51.854;6.622;2022-09-28T10:42:11;99445.75;;;19.24;56.20
14204;BME280;7185;51.854;6.622;2022-09-28T10:44:52;99449.09;;;18.39;59.70
14204;BME280;7185;51.854;6.622;2022-09-28T10:47:26;99448.13;;;17.74;61.96
14204;BME280;7185;51.854;6.622;2022-09-28T10:50:01;99449.69;;;18.55;63.73
14204;BME280;7185;51.854;6.622;2022-09-28T10:52:36;99449.53;;;19.08;59.64
14204;BME280;7185;51.854;6.622;2022-09-28T10:55:24;99445.63;;;18.88;57.60
14204;BME280;7185;51.854;6.622;2022-09-28T10:57:57;99443.88;;;18.37;60.01
14204;BME280;7185;51.854;6.622;2022-09-28T11:00:34;99448.56;;;17.80;61.40
14204;BME280;7185;51.854;6.622;2022-09-28T11:03:16;99445.50;;;17.19;61.86
14204;BME280;7185;51.854;6.622;2022-09-28T11:05:54;99445.25;;;16.80;65.49
14204;BME280;7185;51.854;6.622;2022-09-28T11:08:29;99443.56;;;16.79;64.99
14204;BME280;7185;51.854;6.622;2022-09-28T11:11:03;99448.66;;;16.53;67.19
14204;BME280;7185;51.854;6.622;2022-09-28T11:13:41;99447.31;;;16.61;70.39
14204;BME280;7185;51.854;6.622;2022-09-28T11:16:23;99446.09;;;16.37;65.16
14204;BME280;7185;51.854;6.622;2022-09-28T11:18:56;99447.31;;;16.46;66.22
14204;BME280;7185;51.854;6.622;2022-09-28T11:21:39;99447.78;;;16.09;67.16
14204;BME280;7185;51.854;6.622;2022-09-28T11:24:21;99456.53;;;15.96;68.43
14204;BME280;7185;51.854;6.622;2022-09-28T11:26:55;99452.38;;;15.75;70.35
14204;BME280;7185;51.854;6.622;2022-09-28T11:29:34;99449.66;;;16.22;69.88
14204;BME280;7185;51.854;6.622;2022-09-28T11:32:08;99451.88;;;16.44;68.83
14204;BME280;7185;51.854;6.622;2022-09-28T11:34:42;99455.75;;;16.53;66.29
14204;BME280;7185;51.854;6.622;2022-09-28T11:37:29;99453.22;;;16.51;66.43
14204;BME280;7185;51.854;6.622;2022-09-28T11:40:15;99453.59;;;16.45;68.03
14204;BME280;7185;51.854;6.622;2022-09-28T11:42:53;99452.25;;;16.38;67.60
14204;BME280;7185;51.854;6.622;2022-09-28T11:45:38;99459.91;;;17.42;63.92
14204;BME280;7185;51.854;6.622;2022-09-28T11:48:13;99441.91;;;19.28;61.61
14204;BME280;7185;51.854;6.622;2022-09-28T11:50:48;99434.13;;;19.62;57.25
14204;BME280;7185;51.854;6.622;2022-09-28T11:53:27;99446.22;;;19.66;60.24
14204;BME280;7185;51.854;6.622;2022-09-28T11:56:04;99435.56;;;20.83;55.98
14204;BME280;7185;51.854;6.622;2022-09-28T11:58:41;99435.50;;;21.93;50.67
14204;BME280;7185;51.854;6.622;2022-09-28T12:01:19;99431.19;;;21.48;49.32
14204;BME280;7185;51.854;6.622;2022-09-28T12:03:56;99433.84;;;20.59;53.23
14204;BME280;7185;51.854;6.622;2022-09-28T12:06:35;99436.25;;;19.57;54.58
14204;BME280;7185;51.854;6.622;2022-09-28T12:09:15;99440.97;;;18.79;59.05
14204;BME280;7185;51.854;6.622;2022-09-28T12:11:55;99445.03;;;18.07;61.42
14204;BME280;7185;51.854;6.622;2022-09-28T12:14:32;99449.31;;;17.55;62.98
14204;BME280;7185;51.854;6.622;2022-09-28T12:17:10;99450.94;;;17.30;63.55
14204;BME280;7185;51.854;6.622;2022-09-28T12:19:49;99450.47;;;17.24;63.47
14204;BME280;7185;51.854;6.622;2022-09-28T12:22:31;99451.56;;;17.48;64.50
14204;BME280;7185;51.854;6.622;2022-09-28T12:25:09;99440.06;;;17.75;63.04
14204;BME280;7185;51.854;6.622;2022-09-28T12:27:48;99447.53;;;17.01;63.30
14204;BME280;7185;51.854;6.622;2022-09-28T12:30:22;99444.41;;;16.94;66.19
14204;BME280;7185;51.854;6.622;2022-09-28T12:33:00;99448.25;;;16.74;65.68
14204;BME280;7185;51.854;6.622;2022-09-28T12:35:43;99449.41;;;16.27;67.39
14204;BME280;7185;51.854;6.622;2022-09-28T12:38:29;99448.03;;;16.05;67.40
14204;BME280;7185;51.854;6.622;2022-09-28T12:41:15;99444.00;;;15.83;69.91
14204;BME280;7185;51.854;6.622;2022-09-28T12:44:02;99438.75;;;15.67;70.38
14204;BME280;7185;51.854;6.622;2022-09-28T12:46:53;99445.16;;;15.47;72.76
14204;BME280;7185;51.854;6.622;2022-09-28T12:49:33;99446.19;;;15.44;72.62
14204;BME280;7185;51.854;6.622;2022-09-28T12:55:36;99442.00;;;15.56;73.54
14204;BME280;7185;51.854;6.622;2022-09-28T12:58:25;99440.03;;;15.60;75.74
14204;BME280;7185;51.854;6.622;2022-09-28T13:01:06;99438.56;;;15.86;73.07
14204;BME280;7185;51.854;6.622;2022-09-28T13:04:01;99435.00;;;16.02;73.69
14204;BME280;7185;51.854;6.622;2022-09-28T13:06:46;99428.50;;;16.22;71.19
14204;BME280;7185;51.854;6.622;2022-09-28T13:09:23;99429.94;;;16.71;71.31
14204;BME280;7185;51.854;6.622;2022-09-28T13:12:14;99428.16;;;17.95;67.87
14204;BME280;7185;51.854;6.622;2022-09-28T13:15:02;99432.50;;;17.96;63.11
14204;BME280;7185;51.854;6.622;2022-09-28T13:17:47;99427.44;;;18.06;62.87
14204;BME280;7185;51.854;6.622;2022-09-28T13:20:34;99425.72;;;18.31;63.12
14204;BME280;7185;51.854;6.622;2022-09-28T13:23:13;99429.19;;;18.96;63.94
14204;BME280;7185;51.854;6.622;2022-09-28T13:25:51;99418.09;;;20.33;56.28
14204;BME280;7185;51.854;6.622;2022-09-28T13:28:26;99412.84;;;22.09;51.63
14204;BME280;7185;51.854;6.622;2022-09-28T13:31:00;99418.81;;;21.80;54.11
14204;BME280;7185;51.854;6.622;2022-09-28T13:33:35;99411.78;;;22.00;50.19
14204;BME280;7185;51.854;6.622;2022-09-28T13:36:38;99413.34;;;22.03;51.29
14204;BME280;7185;51.854;6.622;2022-09-28T13:39:37;99414.25;;;22.13;50.08
14204;BME280;7185;51.854;6.622;2022-09-28T13:42:10;99419.25;;;21.31;51.88
14204;BME280;7185;51.854;6.622;2022-09-28T13:44:57;99417.25;;;20.67;52.59
14204;BME280;7185;51.854;6.622;2022-09-28T13:47:54;99416.16;;;19.77;55.20
14204;BME280;7185;51.854;6.622;2022-09-28T13:50:33;99423.03;;;18.83;56.96
14204;BME280;7185;51.854;6.622;2022-09-28T13:53:17;99423.31;;;18.28;59.94
14204;BME280;7185;51.854;6.622;2022-09-28T13:56:02;99429.34;;;17.77;60.08
14204;BME280;7185;51.854;6.622;2022-09-28T13:58:41;99424.44;;;17.98;61.25
14204;BME280;7185;51.854;6.622;2022-09-28T14:01:17;99427.63;;;18.03;59.16
14204;BME280;7185;51.854;6.622;2022-09-28T14:04:14;99428.16;;;18.08;60.10
14204;BME280;7185;51.854;6.622;2022-09-28T14:06:49;99421.06;;;18.22;59.24
14204;BME280;7185;51.854;6.622;2022-09-28T14:09:40;99419.16;;;17.98;59.70
14204;BME280;7185;51.854;6.622;2022-09-28T14:15:42;99420.91;;;17.44;63.17
14204;BME280;7185;51.854;6.622;2022-09-28T14:18:29;99424.56;;;17.29;62.23
14204;BME280;7185;51.854;6.622;2022-09-28T14:21:38;99426.31;;;17.15;63.40
14204;BME280;7185;51.854;6.622;2022-09-28T14:24:20;99422.66;;;17.03;64.07
14204;BME280;7185;51.854;6.622;2022-09-28T14:30:27;99419.16;;;16.74;67.82
14204;BME280;7185;51.854;6.622;2022-09-28T14:35:55;99422.97;;;16.41;69.67
14204;BME280;7185;51.854;6.622;2022-09-28T14:38:31;99424.09;;;16.22;69.53
14204;BME280;7185;51.854;6.622;2022-09-28T14:41:28;99424.44;;;16.02;70.17
14204;BME280;7185;51.854;6.622;2022-09-28T14:44:05;99429.97;;;15.83;71.41
14204;BME280;7185;51.854;6.622;2022-09-28T14:46:42;99432.16;;;15.74;73.02
14204;BME280;7185;51.854;6.622;2022-09-28T14:49:44;99436.16;;;15.51;74.63
14204;BME280;7185;51.854;6.622;2022-09-28T14:52:37;99446.41;;;15.41;77.44
14204;BME280;7185;51.854;6.622;2022-09-28T14:55:16;99446.22;;;15.28;78.20
14204;BME280;7185;51.854;6.622;2022-09-28T14:57:51;99456.13;;;15.09;78.51
14204;BME280;7185;51.854;6.622;2022-09-28T15:00:25;99456.19;;;14.91;76.76
14204;BME280;7185;51.854;6.622;2022-09-28T15:03:01;99454.56;;;14.73;75.87
14204;BME280;7185;51.854;6.622;2022-09-28T15:05:37;99462.00;;;14.64;77.93
14204;BME280;7185;51.854;6.622;2022-09-28T15:08:13;99465.25;;;14.70;78.56
14204;BME280;7185;51.854;6.622;2022-09-28T15:11:22;99474.19;;;14.67;78.02
14204;BME280;7185;51.854;6.622;2022-09-28T15:14:10;99469.44;;;14.56;78.03
14204;BME280;7185;51.854;6.622;2022-09-28T15:16:49;99468.75;;;14.53;80.55
14204;BME280;7185;51.854;6.622;2022-09-28T15:19:26;99475.06;;;14.50;80.00
14204;BME280;7185;51.854;6.622;2022-09-28T15:22:02;99469.63;;;14.53;82.71
14204;BME280;7185;51.854;6.622;2022-09-28T15:24:53;99475.16;;;14.48;83.64
14204;BME280;7185;51.854;6.622;2022-09-28T15:27:33;99475.22;;;14.47;85.24
14204;BME280;7185;51.854;6.622;2022-09-28T15:30:19;99466.50;;;14.29;86.62
14204;BME280;7185;51.854;6.622;2022-09-28T15:32:52;99478.56;;;14.33;88.84
14204;BME280;7185;51.854;6.622;2022-09-28T15:35:26;99476.34;;;14.25;90.35
14204;BME280;7185;51.854;6.622;2022-09-28T15:38:10;99481.44;;;14.28;90.70
14204;BME280;7185;51.854;6.622;2022-09-28T15:41:28;99485.19;;;13.89;92.57
14204;BME280;7185;51.854;6.622;2022-09-28T15:44:40;99486.72;;;13.93;95.66
14204;BME280;7185;51.854;6.622;2022-09-28T15:47:26;99498.78;;;13.62;83.38
14204;BME280;7185;51.854;6.622;2022-09-28T15:50:04;99499.81;;;13.41;80.88
14204;BME280;7185;51.854;6.622;2022-09-28T15:53:01;99505.28;;;13.17;79.11
14204;BME280;7185;51.854;6.622;2022-09-28T15:56:00;99500.50;;;13.06;79.78
14204;BME280;7185;51.854;6.622;2022-09-28T15:59:09;99503.94;;;13.08;80.63
14204;BME280;7185;51.854;6.622;2022-09-28T16:02:12;99513.59;;;13.07;80.95
14204;BME280;7185;51.854;6.622;2022-09-28T16:04:54;99515.31;;;13.08;82.81
14204;BME280;7185;51.854;6.622;2022-09-28T16:07:46;99534.00;;;13.02;84.42
14204;BME280;7185;51.854;6.622;2022-09-28T16:10:34;99534.22;;;12.79;85.68
14204;BME280;7185;51.854;6.622;2022-09-28T16:13:50;99538.53;;;12.80;88.04
14204;BME280;7185;51.854;6.622;2022-09-28T16:16:50;99546.69;;;12.73;90.70
14204;BME280;7185;51.854;6.622;2022-09-28T16:19:51;99545.13;;;12.69;89.51
14204;BME280;7185;51.854;6.622;2022-09-28T16:22:42;99549.28;;;12.75;90.00
14204;BME280;7185;51.854;6.622;2022-09-28T16:25:23;99554.31;;;12.59;93.36
14204;BME280;7185;51.854;6.622;2022-09-28T16:28:01;99564.28;;;12.52;100.00
14204;BME280;7185;51.854;6.622;2022-09-28T16:30:34;99563.94;;;12.60;100.00
14204;BME280;7185;51.854;6.622;2022-09-28T16:33:27;99561.72;;;12.51;100.00
14204;BME280;7185;51.854;6.622;2022-09-28T16:36:03;99561.56;;;12.54;100.00
14204;BME280;7185;51.854;6.622;2022-09-28T16:38:42;99572.53;;;12.64;100.00
14204;BME280;7185;51.854;6.622;2022-09-28T16:41:17;99568.66;;;12.52;100.00
14204;BME280;7185;51.854;6.622;2022-09-28T16:44:07;99571.34;;;12.50;100.00
14204;BME280;7185;51.854;6.622;2022-09-28T16:46:49;99578.41;;;12.50;100.00
14204;BME280;7185;51.854;6.622;2022-09-28T16:49:34;99568.81;;;12.49;100.00
14204;BME280;7185;51.854;6.622;2022-09-28T16:52:28;99576.97;;;12.42;100.00
14204;BME280;7185;51.854;6.622;2022-09-28T16:55:51;99584.38;;;12.33;100.00